sensor_id;sensor_type;location;lat;lon;timestamp;temperature;humidity
3940;DHT22;1984;48.312;9.244;2022-09-20T00:00:38;4.70;99.90
3940;DHT22;1984;48.312;9.244;2022-09-20T00:03:03;4.70;99.90
3940;DHT22;1984;48.312;9.244;2022-09-20T00:05:32;4.70;99.90
3940;DHT22;1984;48.312;9.244;2022-09-20T00:07:57;4.70;99.90
3940;DHT22;1984;48.312;9.244;2022-09-20T00:10:23;4.60;99.90
3940;DHT22;1984;48.312;9.244;2022-09-20T00:12:49;4.60;99.90
3940;DHT22;1984;48.312;9.244;2022-09-20T00:15:14;4.50;99.90
3940;DHT22;1984;48.312;9.244;2022-09-20T00:17:40;4.50;99.90
3940;DHT22;1984;48.312;9.244;2022-09-20T00:20:06;4.50;99.90
3940;DHT22;1984;48.312;9.244;2022-09-20T00:22:31;4.50;99.90
3940;DHT22;1984;48.312;9.244;2022-09-20T00:24:57;4.50;99.90
3940;DHT22;1984;48.312;9.244;2022-09-20T00:27:22;4.50;99.90
3940;DHT22;1984;48.312;9.244;2022-09-20T00:29:48;4.50;99.90
3940;DHT22;1984;48.312;9.244;2022-09-20T00:32:13;4.50;99.90
3940;DHT22;1984;48.312;9.244;2022-09-20T00:34:39;4.50;99.90
3940;DHT22;1984;48.312;9.244;2022-09-20T00:37:23;4.50;99.90
3940;DHT22;1984;48.312;9.244;2022-09-20T00:39:48;4.40;99.90
3940;DHT22;1984;48.312;9.244;2022-09-20T00:42:14;4.30;99.90
3940;DHT22;1984;48.312;9.244;2022-09-20T00:50:02;4.20;99.90
3940;DHT22;1984;48.312;9.244;2022-09-20T00:52:30;4.20;99.90
3940;DHT22;1984;48.312;9.244;2022-09-20T00:54:58;4.10;99.90
3940;DHT22;1984;48.312;9.244;2022-09-20T00:57:24;4.20;99.90
3940;DHT22;1984;48.312;9.244;2022-09-20T00:59:51;4.20;99.90
3940;DHT22;1984;48.312;9.244;2022-09-20T01:02:22;4.30;99.90
3940;DHT22;1984;48.312;9.244;2022-09-20T01:04:49;4.20;99.90
3940;DHT22;1984;48.312;9.244;2022-09-20T01:07:16;4.20;99.90
3940;DHT22;1984;48.312;9.244;2022-09-20T01:09:44;4.20;99.90
3940;DHT22;1984;48.312;9.244;2022-09-20T01:12:13;4.20;99.90
3940;DHT22;1984;48.312;9.244;2022-09-20T01:14:41;4.20;99.90
3940;DHT22;1984;48.312;9.244;2022-09-20T01:17:08;4.20;99.90
3940;DHT22;1984;48.312;9.244;2022-09-20T01:22:13;4.20;99.90
3940;DHT22;1984;48.312;9.244;2022-09-20T01:27:48;3.90;99.90
3940;DHT22;1984;48.312;9.244;2022-09-20T01:30:24;3.90;99.90
3940;DHT22;1984;48.312;9.244;2022-09-20T01:33:06;3.80;99.90
3940;DHT22;1984;48.312;9.244;2022-09-20T01:35:34;3.70;99.90
3940;DHT22;1984;48.312;9.244;2022-09-20T01:41:03;3.60;99.90
3940;DHT22;1984;48.312;9.244;2022-09-20T01:43:39;3.60;99.90
3940;DHT22;1984;48.312;9.244;2022-09-20T01:48:41;3.70;99.90
3940;DHT22;1984;48.312;9.244;2022-09-20T01:51:40;3.70;99.90
3940;DHT22;1984;48.312;9.244;2022-09-20T01:57:28;3.50;99.90
3940;DHT22;1984;48.312;9.244;2022-09-20T02:00:06;3.40;99.90
3940;DHT22;1984;48.312;9.244;2022-09-20T02:03:13;3.40;99.90
3940;DHT22;1984;48.312;9.244;2022-09-20T02:11:08;3.30;99.90
3940;DHT22;1984;48.312;9.244;2022-09-20T02:13:48;3.40;99.90
3940;DHT22;1984;48.312;9.244;2022-09-20T02:16:49;3.40;99.90
3940;DHT22;1984;48.312;9.244;2022-09-20T02:24:57;3.40;99.90
3940;DHT22;1984;48.312;9.244;2022-09-20T02:30:37;3.30;99.90
3940;DHT22;1984;48.312;9.244;2022-09-20T02:36:21;3.30;99.90
3940;DHT22;1984;48.312;9.244;2022-09-20T02:41:58;3.30;99.90
3940;DHT22;1984;48.312;9.244;2022-09-20T02:44:35;3.30;99.90
3940;DHT22;1984;48.312;9.244;2022-09-20T02:53:11;3.20;99.90
3940;DHT22;1984;48.312;9.244;2022-09-20T02:58:48;3.30;99.90
3940;DHT22;1984;48.312;9.244;2022-09-20T03:09:48;3.00;99.90
3940;DHT22;1984;48.312;9.244;2022-09-20T03:15:30;3.00;99.90
3940;DHT22;1984;48.312;9.244;2022-09-20T03:18:10;3.00;99.90
3940;DHT22;1984;48.312;9.244;2022-09-20T03:20:57;3.00;99.90
3940;DHT22;1984;48.312;9.244;2022-09-20T03:26:36;3.10;99.90
3940;DHT22;1984;48.312;9.244;2022-09-20T03:29:33;3.10;99.90
3940;DHT22;1984;48.312;9.244;2022-09-20T03:35:21;3.20;99.90
3940;DHT22;1984;48.312;9.244;2022-09-20T03:46:18;3.20;99.90
3940;DHT22;1984;48.312;9.244;2022-09-20T03:49:14;3.20;99.90
3940;DHT22;1984;48.312;9.244;2022-09-20T04:11:05;3.40;99.90
3940;DHT22;1984;48.312;9.244;2022-09-20T04:19:03;3.20;99.90
3940;DHT22;1984;48.312;9.244;2022-09-20T04:24:15;3.20;99.90
3940;DHT22;1984;48.312;9.244;2022-09-20T04:26:54;3.20;99.90
3940;DHT22;1984;48.312;9.244;2022-09-20T04:29:26;3.10;99.90
3940;DHT22;1984;48.312;9.244;2022-09-20T04:37:46;3.00;99.90
3940;DHT22;1984;48.312;9.244;2022-09-20T04:40:29;3.00;99.90
3940;DHT22;1984;48.312;9.244;2022-09-20T05:14:02;2.90;99.90
3940;DHT22;1984;48.312;9.244;2022-09-20T05:16:58;2.90;99.90
3940;DHT22;1984;48.312;9.244;2022-09-20T05:28:20;3.00;99.90
3940;DHT22;1984;48.312;9.244;2022-09-20T05:30:57;3.00;99.90
3940;DHT22;1984;48.312;9.244;2022-09-20T05:33:34;3.00;99.90
3940;DHT22;1984;48.312;9.244;2022-09-20T05:42:16;3.10;99.90
3940;DHT22;1984;48.312;9.244;2022-09-20T05:52:50;3.20;99.90
3940;DHT22;1984;48.312;9.244;2022-09-20T05:58:04;3.20;99.90
3940;DHT22;1984;48.312;9.244;2022-09-20T06:00:42;3.30;99.90
3940;DHT22;1984;48.312;9.244;2022-09-20T06:08:37;3.40;99.90
3940;DHT22;1984;48.312;9.244;2022-09-20T06:14:20;3.60;99.90
3940;DHT22;1984;48.312;9.244;2022-09-20T06:22:42;4.00;99.90
3940;DHT22;1984;48.312;9.244;2022-09-20T06:27:43;4.20;99.90
3940;DHT22;1984;48.312;9.244;2022-09-20T06:30:38;4.30;99.90
3940;DHT22;1984;48.312;9.244;2022-09-20T06:35:39;4.60;99.90
3940;DHT22;1984;48.312;9.244;2022-09-20T06:38:30;4.80;99.90
3940;DHT22;1984;48.312;9.244;2022-09-20T06:41:17;4.80;99.90
3940;DHT22;1984;48.312;9.244;2022-09-20T06:43:56;4.80;99.90
3940;DHT22;1984;48.312;9.244;2022-09-20T06:46:29;4.80;99.90
3940;DHT22;1984;48.312;9.244;2022-09-20T06:48:55;4.70;99.90
3940;DHT22;1984;48.312;9.244;2022-09-20T06:51:22;4.70;99.90
3940;DHT22;1984;48.312;9.244;2022-09-20T06:53:49;4.70;99.90
3940;DHT22;1984;48.312;9.244;2022-09-20T06:56:19;4.70;99.90
3940;DHT22;1984;48.312;9.244;2022-09-20T06:58:47;4.80;99.90
3940;DHT22;1984;48.312;9.244;2022-09-20T07:01:13;4.90;99.90
3940;DHT22;1984;48.312;9.244;2022-09-20T07:03:41;5.10;99.90
3940;DHT22;1984;48.312;9.244;2022-09-20T07:06:07;5.20;99.90
3940;DHT22;1984;48.312;9.244;2022-09-20T07:08:34;5.30;99.90
3940;DHT22;1984;48.312;9.244;2022-09-20T07:11:08;5.50;99.90
3940;DHT22;1984;48.312;9.244;2022-09-20T07:13:35;5.70;99.90
3940;DHT22;1984;48.312;9.244;2022-09-20T07:16:05;6.50;99.90
3940;DHT22;1984;48.312;9.244;2022-09-20T07:18:31;8.00;99.90
3940;DHT22;1984;48.312;9.244;2022-09-20T07:21:00;9.00;99.90
3940;DHT22;1984;48.312;9.244;2022-09-20T07:23:27;9.50;99.90
3940;DHT22;1984;48.312;9.244;2022-09-20T07:25:54;9.80;99.90
3940;DHT22;1984;48.312;9.244;2022-09-20T07:28:25;9.90;99.90
3940;DHT22;1984;48.312;9.244;2022-09-20T07:30:51;9.70;99.90
3940;DHT22;1984;48.312;9.244;2022-09-20T07:33:16;9.60;99.90
3940;DHT22;1984;48.312;9.244;2022-09-20T07:35:55;9.50;99.90
3940;DHT22;1984;48.312;9.244;2022-09-20T07:38:21;9.60;99.90
3940;DHT22;1984;48.312;9.244;2022-09-20T07:40:55;9.80;99.90
3940;DHT22;1984;48.312;9.244;2022-09-20T07:43:21;10.00;99.90
3940;DHT22;1984;48.312;9.244;2022-09-20T07:45:52;10.10;99.90
3940;DHT22;1984;48.312;9.244;2022-09-20T07:48:18;10.10;99.90
3940;DHT22;1984;48.312;9.244;2022-09-20T07:50:56;10.10;99.90
3940;DHT22;1984;48.312;9.244;2022-09-20T07:53:22;10.00;99.90
3940;DHT22;1984;48.312;9.244;2022-09-20T07:56:08;9.80;99.90
3940;DHT22;1984;48.312;9.244;2022-09-20T07:58:34;9.70;99.90
3940;DHT22;1984;48.312;9.244;2022-09-20T08:01:05;9.60;99.90
3940;DHT22;1984;48.312;9.244;2022-09-20T08:03:32;9.60;99.90
3940;DHT22;1984;48.312;9.244;2022-09-20T08:05:59;9.50;99.90
3940;DHT22;1984;48.312;9.244;2022-09-20T08:08:25;9.60;99.90
3940;DHT22;1984;48.312;9.244;2022-09-20T08:10:51;9.80;99.90
3940;DHT22;1984;48.312;9.244;2022-09-20T08:13:20;10.00;99.90
3940;DHT22;1984;48.312;9.244;2022-09-20T08:15:45;10.30;99.90
3940;DHT22;1984;48.312;9.244;2022-09-20T08:18:12;10.40;99.90
3940;DHT22;1984;48.312;9.244;2022-09-20T08:20:39;10.40;99.90
3940;DHT22;1984;48.312;9.244;2022-09-20T08:23:05;10.50;99.90
3940;DHT22;1984;48.312;9.244;2022-09-20T08:25:31;10.70;99.90
3940;DHT22;1984;48.312;9.244;2022-09-20T08:27:57;11.40;99.90
3940;DHT22;1984;48.312;9.244;2022-09-20T08:30:22;12.10;99.90
3940;DHT22;1984;48.312;9.244;2022-09-20T08:32:48;13.20;99.90
3940;DHT22;1984;48.312;9.244;2022-09-20T08:35:14;13.50;99.90
3940;DHT22;1984;48.312;9.244;2022-09-20T08:37:41;13.40;99.90
3940;DHT22;1984;48.312;9.244;2022-09-20T08:40:11;15.10;99.90
3940;DHT22;1984;48.312;9.244;2022-09-20T08:42:37;16.70;99.90
3940;DHT22;1984;48.312;9.244;2022-09-20T08:45:15;17.60;99.90
3940;DHT22;1984;48.312;9.244;2022-09-20T08:47:58;19.30;99.90
3940;DHT22;1984;48.312;9.244;2022-09-20T08:50:25;20.60;99.90
3940;DHT22;1984;48.312;9.244;2022-09-20T08:52:56;21.70;99.90
3940;DHT22;1984;48.312;9.244;2022-09-20T08:55:29;21.10;99.90
3940;DHT22;1984;48.312;9.244;2022-09-20T08:58:00;19.50;99.90
3940;DHT22;1984;48.312;9.244;2022-09-20T09:00:33;19.10;99.90
3940;DHT22;1984;48.312;9.244;2022-09-20T09:03:18;20.30;99.90
3940;DHT22;1984;48.312;9.244;2022-09-20T09:05:52;21.80;99.90
3940;DHT22;1984;48.312;9.244;2022-09-20T09:08:29;22.90;98.40
3940;DHT22;1984;48.312;9.244;2022-09-20T09:11:06;22.70;96.10
3940;DHT22;1984;48.312;9.244;2022-09-20T09:13:55;21.40;95.70
3940;DHT22;1984;48.312;9.244;2022-09-20T09:16:25;20.30;96.20
3940;DHT22;1984;48.312;9.244;2022-09-20T09:18:51;19.80;96.00
3940;DHT22;1984;48.312;9.244;2022-09-20T09:21:28;19.70;98.00
3940;DHT22;1984;48.312;9.244;2022-09-20T09:26:35;21.70;95.00
3940;DHT22;1984;48.312;9.244;2022-09-20T09:29:15;22.60;94.50
3940;DHT22;1984;48.312;9.244;2022-09-20T09:31:42;22.90;92.40
3940;DHT22;1984;48.312;9.244;2022-09-20T09:34:35;23.50;90.90
3940;DHT22;1984;48.312;9.244;2022-09-20T09:37:03;23.80;89.90
3940;DHT22;1984;48.312;9.244;2022-09-20T09:39:35;23.70;87.90
3940;DHT22;1984;48.312;9.244;2022-09-20T09:42:23;23.60;89.30
3940;DHT22;1984;48.312;9.244;2022-09-20T09:44:50;23.70;89.00
3940;DHT22;1984;48.312;9.244;2022-09-20T09:47:25;23.70;86.20
3940;DHT22;1984;48.312;9.244;2022-09-20T09:49:58;23.70;87.80
3940;DHT22;1984;48.312;9.244;2022-09-20T09:52:24;23.90;87.80
3940;DHT22;1984;48.312;9.244;2022-09-20T09:54:53;23.00;87.80
3940;DHT22;1984;48.312;9.244;2022-09-20T10:00:12;22.20;89.90
3940;DHT22;1984;48.312;9.244;2022-09-20T10:08:20;22.90;90.30
3940;DHT22;1984;48.312;9.244;2022-09-20T10:16:43;24.40;85.30
3940;DHT22;1984;48.312;9.244;2022-09-20T10:23:00;21.30;89.40
3940;DHT22;1984;48.312;9.244;2022-09-20T10:28:54;21.00;89.70
3940;DHT22;1984;48.312;9.244;2022-09-20T10:36:59;17.70;94.00
3940;DHT22;1984;48.312;9.244;2022-09-20T10:39:34;16.90;94.80
3940;DHT22;1984;48.312;9.244;2022-09-20T10:45:58;16.10;96.40
3940;DHT22;1984;48.312;9.244;2022-09-20T10:48:43;17.10;97.60
3940;DHT22;1984;48.312;9.244;2022-09-20T10:51:23;17.40;95.50
3940;DHT22;1984;48.312;9.244;2022-09-20T10:56:43;16.30;95.30
3940;DHT22;1984;48.312;9.244;2022-09-20T11:02:40;15.50;96.80
3940;DHT22;1984;48.312;9.244;2022-09-20T11:08:10;14.90;96.60
3940;DHT22;1984;48.312;9.244;2022-09-20T11:11:45;15.10;97.40
3940;DHT22;1984;48.312;9.244;2022-09-20T11:14:05;15.30;97.50
3940;DHT22;1984;48.312;9.244;2022-09-20T11:16:43;15.30;97.20
3940;DHT22;1984;48.312;9.244;2022-09-20T11:19:27;15.20;98.00
3940;DHT22;1984;48.312;9.244;2022-09-20T11:22:12;14.80;99.50
3940;DHT22;1984;48.312;9.244;2022-09-20T11:27:19;14.50;99.90
3940;DHT22;1984;48.312;9.244;2022-09-20T11:30:14;14.70;99.90
3940;DHT22;1984;48.312;9.244;2022-09-20T11:32:55;15.30;99.90
3940;DHT22;1984;48.312;9.244;2022-09-20T11:38:07;16.50;99.60
3940;DHT22;1984;48.312;9.244;2022-09-20T11:40:52;16.80;98.50
3940;DHT22;1984;48.312;9.244;2022-09-20T11:43:20;16.70;97.50
3940;DHT22;1984;48.312;9.244;2022-09-20T11:45:51;16.40;98.00
3940;DHT22;1984;48.312;9.244;2022-09-20T11:48:21;15.80;97.50
3940;DHT22;1984;48.312;9.244;2022-09-20T11:53:42;14.90;98.80
3940;DHT22;1984;48.312;9.244;2022-09-20T11:56:30;14.70;99.90
3940;DHT22;1984;48.312;9.244;2022-09-20T11:59:02;14.40;99.90
3940;DHT22;1984;48.312;9.244;2022-09-20T12:01:39;14.30;99.90
3940;DHT22;1984;48.312;9.244;2022-09-20T12:04:24;14.10;99.80
3940;DHT22;1984;48.312;9.244;2022-09-20T12:09:56;14.20;99.90
3940;DHT22;1984;48.312;9.244;2022-09-20T12:12:31;14.40;99.50
3940;DHT22;1984;48.312;9.244;2022-09-20T12:15:02;14.60;99.60
3940;DHT22;1984;48.312;9.244;2022-09-20T12:26:02;14.80;99.90
3940;DHT22;1984;48.312;9.244;2022-09-20T12:28:40;14.90;97.70
3940;DHT22;1984;48.312;9.244;2022-09-20T12:36:41;15.20;99.90
3940;DHT22;1984;48.312;9.244;2022-09-20T12:41:55;15.70;99.60
3940;DHT22;1984;48.312;9.244;2022-09-20T12:44:42;15.60;98.90
3940;DHT22;1984;48.312;9.244;2022-09-20T12:49:53;14.90;99.20
3940;DHT22;1984;48.312;9.244;2022-09-20T12:52:51;14.60;99.50
3940;DHT22;1984;48.312;9.244;2022-09-20T13:05:41;14.00;99.50
3940;DHT22;1984;48.312;9.244;2022-09-20T13:16:05;14.70;97.60
3940;DHT22;1984;48.312;9.244;2022-09-20T13:18:33;14.50;98.20
3940;DHT22;1984;48.312;9.244;2022-09-20T13:21:00;14.40;98.00
3940;DHT22;1984;48.312;9.244;2022-09-20T13:23:30;14.20;98.30
3940;DHT22;1984;48.312;9.244;2022-09-20T13:25:59;14.00;99.30
3940;DHT22;1984;48.312;9.244;2022-09-20T13:28:58;13.90;99.30
3940;DHT22;1984;48.312;9.244;2022-09-20T13:31:27;13.80;99.90
3940;DHT22;1984;48.312;9.244;2022-09-20T13:33:53;13.80;99.60
3940;DHT22;1984;48.312;9.244;2022-09-20T13:36:25;13.80;99.60
3940;DHT22;1984;48.312;9.244;2022-09-20T13:38:54;13.80;99.90
3940;DHT22;1984;48.312;9.244;2022-09-20T13:41:20;14.00;99.90
3940;DHT22;1984;48.312;9.244;2022-09-20T13:43:48;14.10;99.60
3940;DHT22;1984;48.312;9.244;2022-09-20T13:46:29;14.10;99.60
3940;DHT22;1984;48.312;9.244;2022-09-20T13:49:15;14.10;99.00
3940;DHT22;1984;48.312;9.244;2022-09-20T13:51:42;14.00;98.80
3940;DHT22;1984;48.312;9.244;2022-09-20T13:54:27;14.00;98.90
3940;DHT22;1984;48.312;9.244;2022-09-20T13:56:57;14.00;98.60
3940;DHT22;1984;48.312;9.244;2022-09-20T14:01:53;14.30;99.90
3940;DHT22;1984;48.312;9.244;2022-09-20T14:04:22;14.50;99.90
3940;DHT22;1984;48.312;9.244;2022-09-20T14:06:49;14.40;99.40
3940;DHT22;1984;48.312;9.244;2022-09-20T14:09:25;14.40;99.90
3940;DHT22;1984;48.312;9.244;2022-09-20T14:11:52;14.40;99.50
3940;DHT22;1984;48.312;9.244;2022-09-20T14:14:18;14.30;98.50
3940;DHT22;1984;48.312;9.244;2022-09-20T14:16:45;14.30;99.20
3940;DHT22;1984;48.312;9.244;2022-09-20T14:19:15;14.30;98.90
3940;DHT22;1984;48.312;9.244;2022-09-20T14:21:41;14.40;98.30
3940;DHT22;1984;48.312;9.244;2022-09-20T14:26:58;14.60;98.70
3940;DHT22;1984;48.312;9.244;2022-09-20T14:32:03;14.60;98.70
3940;DHT22;1984;48.312;9.244;2022-09-20T14:34:30;14.50;98.70
3940;DHT22;1984;48.312;9.244;2022-09-20T14:37:10;14.50;98.40
3940;DHT22;1984;48.312;9.244;2022-09-20T14:39:47;14.50;99.60
3940;DHT22;1984;48.312;9.244;2022-09-20T14:42:27;14.60;99.40
3940;DHT22;1984;48.312;9.244;2022-09-20T14:44:54;14.50;99.60
3940;DHT22;1984;48.312;9.244;2022-09-20T14:50:42;14.50;99.70
3940;DHT22;1984;48.312;9.244;2022-09-20T14:55:57;14.10;99.60
3940;DHT22;1984;48.312;9.244;2022-09-20T14:58:23;14.00;99.90
3940;DHT22;1984;48.312;9.244;2022-09-20T15:00:58;14.00;99.80
3940;DHT22;1984;48.312;9.244;2022-09-20T15:03:32;13.90;99.80
3940;DHT22;1984;48.312;9.244;2022-09-20T15:05:58;13.90;99.90
3940;DHT22;1984;48.312;9.244;2022-09-20T15:08:24;13.90;99.90
3940;DHT22;1984;48.312;9.244;2022-09-20T15:10:50;13.90;99.90
3940;DHT22;1984;48.312;9.244;2022-09-20T15:13:16;13.70;99.90
3940;DHT22;1984;48.312;9.244;2022-09-20T15:15:49;13.60;99.90
3940;DHT22;1984;48.312;9.244;2022-09-20T15:18:39;13.60;99.90
3940;DHT22;1984;48.312;9.244;2022-09-20T15:21:04;13.50;99.90
3940;DHT22;1984;48.312;9.244;2022-09-20T15:23:30;13.40;99.90
3940;DHT22;1984;48.312;9.244;2022-09-20T15:25:57;13.30;99.90
3940;DHT22;1984;48.312;9.244;2022-09-20T15:28:22;13.20;99.90
3940;DHT22;1984;48.312;9.244;2022-09-20T15:30:49;13.00;99.90
3940;DHT22;1984;48.312;9.244;2022-09-20T15:33:16;13.00;99.90
3940;DHT22;1984;48.312;9.244;2022-09-20T15:35:43;12.90;99.90
3940;DHT22;1984;48.312;9.244;2022-09-20T15:38:10;12.80;99.90
3940;DHT22;1984;48.312;9.244;2022-09-20T15:40:46;12.70;99.90
3940;DHT22;1984;48.312;9.244;2022-09-20T15:43:14;12.70;99.90
3940;DHT22;1984;48.312;9.244;2022-09-20T15:45:51;12.70;99.90
3940;DHT22;1984;48.312;9.244;2022-09-20T15:48:19;12.60;99.90
3940;DHT22;1984;48.312;9.244;2022-09-20T15:51:05;12.50;99.90
3940;DHT22;1984;48.312;9.244;2022-09-20T15:53:35;12.50;99.90
3940;DHT22;1984;48.312;9.244;2022-09-20T15:56:06;12.50;99.90
3940;DHT22;1984;48.312;9.244;2022-09-20T15:58:38;12.40;99.90
3940;DHT22;1984;48.312;9.244;2022-09-20T16:01:08;12.40;99.90
3940;DHT22;1984;48.312;9.244;2022-09-20T16:03:35;12.40;99.90
3940;DHT22;1984;48.312;9.244;2022-09-20T16:06:05;12.40;99.90
3940;DHT22;1984;48.312;9.244;2022-09-20T16:08:36;12.40;99.90
3940;DHT22;1984;48.312;9.244;2022-09-20T16:11:03;12.50;99.90
3940;DHT22;1984;48.312;9.244;2022-09-20T16:13:29;12.70;99.90
3940;DHT22;1984;48.312;9.244;2022-09-20T16:15:56;12.80;99.90
3940;DHT22;1984;48.312;9.244;2022-09-20T16:18:22;12.90;99.90
3940;DHT22;1984;48.312;9.244;2022-09-20T16:21:07;13.00;99.90
3940;DHT22;1984;48.312;9.244;2022-09-20T16:23:33;12.90;99.90
3940;DHT22;1984;48.312;9.244;2022-09-20T16:26:01;12.80;99.90
3940;DHT22;1984;48.312;9.244;2022-09-20T16:28:27;12.70;99.90
3940;DHT22;1984;48.312;9.244;2022-09-20T16:30:56;12.50;99.90
3940;DHT22;1984;48.312;9.244;2022-09-20T16:33:22;12.30;99.90
3940;DHT22;1984;48.312;9.244;2022-09-20T16:35:48;12.20;99.90
3940;DHT22;1984;48.312;9.244;2022-09-20T16:38:13;12.10;99.90
3940;DHT22;1984;48.312;9.244;2022-09-20T16:40:39;12.00;99.90
3940;DHT22;1984;48.312;9.244;2022-09-20T16:43:05;11.90;99.90
3940;DHT22;1984;48.312;9.244;2022-09-20T16:45:34;11.80;99.90
3940;DHT22;1984;48.312;9.244;2022-09-20T16:47:59;11.70;99.90
3940;DHT22;1984;48.312;9.244;2022-09-20T16:50:28;11.60;99.90
3940;DHT22;1984;48.312;9.244;2022-09-20T16:52:53;11.60;99.90
3940;DHT22;1984;48.312;9.244;2022-09-20T16:55:19;11.50;99.90
3940;DHT22;1984;48.312;9.244;2022-09-20T16:57:49;11.40;99.90
3940;DHT22;1984;48.312;9.244;2022-09-20T17:00:15;11.40;99.90
3940;DHT22;1984;48.312;9.244;2022-09-20T17:02:47;11.30;99.90
3940;DHT22;1984;48.312;9.244;2022-09-20T17:05:14;11.20;99.90
3940;DHT22;1984;48.312;9.244;2022-09-20T17:07:40;11.10;99.90
3940;DHT22;1984;48.312;9.244;2022-09-20T17:10:09;11.10;99.90
3940;DHT22;1984;48.312;9.244;2022-09-20T17:12:35;11.00;99.90
3940;DHT22;1984;48.312;9.244;2022-09-20T17:15:09;10.90;99.90
3940;DHT22;1984;48.312;9.244;2022-09-20T17:17:38;10.90;99.90
3940;DHT22;1984;48.312;9.244;2022-09-20T17:20:05;10.90;99.90
3940;DHT22;1984;48.312;9.244;2022-09-20T17:22:32;10.90;99.90
3940;DHT22;1984;48.312;9.244;2022-09-20T17:24:57;10.90;99.90
3940;DHT22;1984;48.312;9.244;2022-09-20T17:27:23;10.90;99.90
3940;DHT22;1984;48.312;9.244;2022-09-20T17:29:49;10.90;99.90
3940;DHT22;1984;48.312;9.244;2022-09-20T17:32:14;10.90;99.90
3940;DHT22;1984;48.312;9.244;2022-09-20T17:34:40;10.80;99.90
3940;DHT22;1984;48.312;9.244;2022-09-20T17:37:06;10.80;99.90
3940;DHT22;1984;48.312;9.244;2022-09-20T17:39:31;10.70;99.90
3940;DHT22;1984;48.312;9.244;2022-09-20T17:41:57;10.70;99.90
3940;DHT22;1984;48.312;9.244;2022-09-20T17:44:22;10.60;99.90
3940;DHT22;1984;48.312;9.244;2022-09-20T17:46:49;10.50;99.90
3940;DHT22;1984;48.312;9.244;2022-09-20T17:49:17;10.40;99.90
3940;DHT22;1984;48.312;9.244;2022-09-20T17:51:46;10.40;99.90
3940;DHT22;1984;48.312;9.244;2022-09-20T17:54:12;10.30;99.90
3940;DHT22;1984;48.312;9.244;2022-09-20T17:56:43;10.30;99.90
3940;DHT22;1984;48.312;9.244;2022-09-20T17:59:10;10.10;99.90
3940;DHT22;1984;48.312;9.244;2022-09-20T18:01:36;10.10;99.90
3940;DHT22;1984;48.312;9.244;2022-09-20T18:04:03;10.00;99.90
3940;DHT22;1984;48.312;9.244;2022-09-20T18:06:31;9.90;99.90
3940;DHT22;1984;48.312;9.244;2022-09-20T18:08:59;9.80;99.90
3940;DHT22;1984;48.312;9.244;2022-09-20T18:11:41;9.70;99.90
3940;DHT22;1984;48.312;9.244;2022-09-20T18:14:09;9.70;99.90
3940;DHT22;1984;48.312;9.244;2022-09-20T18:16:35;9.60;99.90
3940;DHT22;1984;48.312;9.244;2022-09-20T18:19:02;9.40;99.90
3940;DHT22;1984;48.312;9.244;2022-09-20T18:21:29;9.40;99.90
3940;DHT22;1984;48.312;9.244;2022-09-20T18:23:55;9.40;99.90
3940;DHT22;1984;48.312;9.244;2022-09-20T18:26:26;9.40;99.90
3940;DHT22;1984;48.312;9.244;2022-09-20T18:31:19;9.50;99.90
3940;DHT22;1984;48.312;9.244;2022-09-20T18:33:44;9.50;99.90
3940;DHT22;1984;48.312;9.244;2022-09-20T18:36:10;9.50;99.90
3940;DHT22;1984;48.312;9.244;2022-09-20T18:38:36;9.60;99.90
3940;DHT22;1984;48.312;9.244;2022-09-20T18:41:02;9.60;99.90
3940;DHT22;1984;48.312;9.244;2022-09-20T18:43:31;9.50;99.90
3940;DHT22;1984;48.312;9.244;2022-09-20T18:45:57;9.60;99.90
3940;DHT22;1984;48.312;9.244;2022-09-20T18:48:31;9.50;99.90
3940;DHT22;1984;48.312;9.244;2022-09-20T18:50:58;9.60;99.90
3940;DHT22;1984;48.312;9.244;2022-09-20T18:53:25;9.60;99.90
3940;DHT22;1984;48.312;9.244;2022-09-20T18:55:51;9.60;99.90
3940;DHT22;1984;48.312;9.244;2022-09-20T18:58:22;9.60;99.90
3940;DHT22;1984;48.312;9.244;2022-09-20T19:04:07;9.50;99.90
3940;DHT22;1984;48.312;9.244;2022-09-20T19:06:43;9.50;99.90
3940;DHT22;1984;48.312;9.244;2022-09-20T19:09:26;9.50;99.90
3940;DHT22;1984;48.312;9.244;2022-09-20T19:11:59;9.50;99.90
3940;DHT22;1984;48.312;9.244;2022-09-20T19:14:32;9.50;99.90
3940;DHT22;1984;48.312;9.244;2022-09-20T19:17:01;9.50;99.90
3940;DHT22;1984;48.312;9.244;2022-09-20T19:19:53;9.50;99.90
3940;DHT22;1984;48.312;9.244;2022-09-20T19:22:48;9.50;99.90
3940;DHT22;1984;48.312;9.244;2022-09-20T19:25:18;9.50;99.90
3940;DHT22;1984;48.312;9.244;2022-09-20T19:27:44;9.50;99.90
3940;DHT22;1984;48.312;9.244;2022-09-20T19:30:13;9.50;99.90
3940;DHT22;1984;48.312;9.244;2022-09-20T19:32:39;9.40;99.90
3940;DHT22;1984;48.312;9.244;2022-09-20T19:35:08;9.40;99.90
3940;DHT22;1984;48.312;9.244;2022-09-20T19:38:08;9.30;99.90
3940;DHT22;1984;48.312;9.244;2022-09-20T19:43:25;9.30;99.90
3940;DHT22;1984;48.312;9.244;2022-09-20T19:45:59;9.30;99.90
3940;DHT22;1984;48.312;9.244;2022-09-20T19:48:51;9.30;99.90
3940;DHT22;1984;48.312;9.244;2022-09-20T19:51:21;9.20;99.90
3940;DHT22;1984;48.312;9.244;2022-09-20T19:53:46;9.10;99.90
3940;DHT22;1984;48.312;9.244;2022-09-20T19:58:45;9.10;99.90
3940;DHT22;1984;48.312;9.244;2022-09-20T20:01:12;9.20;99.90
3940;DHT22;1984;48.312;9.244;2022-09-20T20:03:37;9.20;99.90
3940;DHT22;1984;48.312;9.244;2022-09-20T20:06:16;9.20;99.90
3940;DHT22;1984;48.312;9.244;2022-09-20T20:11:54;9.20;99.90
3940;DHT22;1984;48.312;9.244;2022-09-20T20:20:31;9.20;99.90
3940;DHT22;1984;48.312;9.244;2022-09-20T20:26:08;9.10;99.90
3940;DHT22;1984;48.312;9.244;2022-09-20T20:28:37;9.10;99.90
3940;DHT22;1984;48.312;9.244;2022-09-20T20:31:03;9.10;99.90
3940;DHT22;1984;48.312;9.244;2022-09-20T20:33:30;9.10;99.90
3940;DHT22;1984;48.312;9.244;2022-09-20T20:35:58;9.10;99.90
3940;DHT22;1984;48.312;9.244;2022-09-20T20:38:25;9.10;99.90
3940;DHT22;1984;48.312;9.244;2022-09-20T20:41:01;9.10;99.90
3940;DHT22;1984;48.312;9.244;2022-09-20T20:43:35;9.10;99.90
3940;DHT22;1984;48.312;9.244;2022-09-20T20:46:02;9.10;99.90
3940;DHT22;1984;48.312;9.244;2022-09-20T20:48:28;9.10;99.90
3940;DHT22;1984;48.312;9.244;2022-09-20T20:51:01;9.10;99.90
3940;DHT22;1984;48.312;9.244;2022-09-20T20:53:31;9.10;99.90
3940;DHT22;1984;48.312;9.244;2022-09-20T20:56:08;9.10;99.90
3940;DHT22;1984;48.312;9.244;2022-09-20T20:58:38;9.10;99.90
3940;DHT22;1984;48.312;9.244;2022-09-20T21:01:11;9.10;99.90
3940;DHT22;1984;48.312;9.244;2022-09-20T21:03:38;9.10;99.90
3940;DHT22;1984;48.312;9.244;2022-09-20T21:06:05;9.10;99.90
3940;DHT22;1984;48.312;9.244;2022-09-20T21:08:36;9.00;99.90
3940;DHT22;1984;48.312;9.244;2022-09-20T21:11:07;8.90;99.90
3940;DHT22;1984;48.312;9.244;2022-09-20T21:13:34;8.90;99.90
3940;DHT22;1984;48.312;9.244;2022-09-20T21:18:29;8.80;99.90
3940;DHT22;1984;48.312;9.244;2022-09-20T21:20:54;8.80;99.90
3940;DHT22;1984;48.312;9.244;2022-09-20T21:23:20;8.80;99.90
3940;DHT22;1984;48.312;9.244;2022-09-20T21:25:45;8.80;99.90
3940;DHT22;1984;48.312;9.244;2022-09-20T21:28:11;8.80;99.90
3940;DHT22;1984;48.312;9.244;2022-09-20T21:30:36;8.70;99.90
3940;DHT22;1984;48.312;9.244;2022-09-20T21:33:02;8.70;99.90
3940;DHT22;1984;48.312;9.244;2022-09-20T21:35:27;8.70;99.90
3940;DHT22;1984;48.312;9.244;2022-09-20T21:37:53;8.70;99.90
3940;DHT22;1984;48.312;9.244;2022-09-20T21:40:19;8.70;99.90
3940;DHT22;1984;48.312;9.244;2022-09-20T21:42:44;8.70;99.90
3940;DHT22;1984;48.312;9.244;2022-09-20T21:45:10;8.70;99.90
3940;DHT22;1984;48.312;9.244;2022-09-20T21:47:35;8.70;99.90
3940;DHT22;1984;48.312;9.244;2022-09-20T21:50:01;8.60;99.90
3940;DHT22;1984;48.312;9.244;2022-09-20T21:52:26;8.60;99.90